sensor_id;sensor_type;location;lat;lon;timestamp;P1;durP1;ratioP1;P2;durP2;ratioP2
40815;SDS011;26535;48.788;9.214;2023-10-19T05:55:31;25.85;;;17.13;;
40815;SDS011;26535;48.788;9.214;2023-10-19T05:58:04;27.10;;;17.50;;
40815;SDS011;26535;48.788;9.214;2023-10-19T06:00:30;27.00;;;17.38;;
40815;SDS011;26535;48.788;9.214;2023-10-19T06:02:59;28.33;;;18.92;;
40815;SDS011;26535;48.788;9.214;2023-10-19T06:05:25;30.00;;;16.83;;
40815;SDS011;26535;48.788;9.214;2023-10-19T06:07:55;23.58;;;16.20;;
40815;SDS011;26535;48.788;9.214;2023-10-19T06:10:21;23.33;;;15.93;;
40815;SDS011;26535;48.788;9.214;2023-10-19T06:12:53;23.77;;;16.65;;
40815;SDS011;26535;48.788;9.214;2023-10-19T06:15:19;27.15;;;17.05;;
40815;SDS011;26535;48.788;9.214;2023-10-19T06:21:23;29.55;;;17.48;;
40815;SDS011;26535;48.788;9.214;2023-10-19T06:23:49;28.02;;;17.20;;
40815;SDS011;26535;48.788;9.214;2023-10-19T06:26:17;33.30;;;16.45;;
40815;SDS011;26535;48.788;9.214;2023-10-19T06:28:47;28.25;;;16.10;;
40815;SDS011;26535;48.788;9.214;2023-10-19T06:31:36;28.52;;;15.20;;
40815;SDS011;26535;48.788;9.214;2023-10-19T06:34:06;27.50;;;14.90;;
40815;SDS011;26535;48.788;9.214;2023-10-19T06:36:46;33.45;;;17.17;;
40815;SDS011;26535;48.788;9.214;2023-10-19T06:39:38;30.42;;;15.05;;
40815;SDS011;26535;48.788;9.214;2023-10-19T06:42:25;29.27;;;16.33;;
40815;SDS011;26535;48.788;9.214;2023-10-19T06:44:52;27.98;;;15.50;;
40815;SDS011;26535;48.788;9.214;2023-10-19T06:47:27;24.05;;;13.90;;
40815;SDS011;26535;48.788;9.214;2023-10-19T06:50:08;22.75;;;13.48;;
40815;SDS011;26535;48.788;9.214;2023-10-19T06:52:45;23.23;;;12.95;;
40815;SDS011;26535;48.788;9.214;2023-10-19T06:55:14;24.02;;;13.60;;
40815;SDS011;26535;48.788;9.214;2023-10-19T06:57:51;22.50;;;14.00;;
40815;SDS011;26535;48.788;9.214;2023-10-19T07:00:27;17.25;;;12.00;;
40815;SDS011;26535;48.788;9.214;2023-10-19T07:03:36;24.27;;;12.65;;
40815;SDS011;26535;48.788;9.214;2023-10-19T07:06:11;21.98;;;12.98;;
40815;SDS011;26535;48.788;9.214;2023-10-19T07:08:51;19.77;;;11.70;;
40815;SDS011;26535;48.788;9.214;2023-10-19T07:11:26;21.77;;;11.55;;
40815;SDS011;26535;48.788;9.214;2023-10-19T07:13:53;18.60;;;11.07;;
40815;SDS011;26535;48.788;9.214;2023-10-19T07:16:31;18.60;;;10.48;;
40815;SDS011;26535;48.788;9.214;2023-10-19T07:18:56;20.70;;;12.18;;
40815;SDS011;26535;48.788;9.214;2023-10-19T07:21:24;22.47;;;12.30;;
40815;SDS011;26535;48.788;9.214;2023-10-19T07:24:18;20.40;;;12.80;;
40815;SDS011;26535;48.788;9.214;2023-10-19T07:26:44;19.60;;;12.30;;
40815;SDS011;26535;48.788;9.214;2023-10-19T07:29:28;18.45;;;10.80;;
40815;SDS011;26535;48.788;9.214;2023-10-19T07:31:58;20.25;;;11.70;;
40815;SDS011;26535;48.788;9.214;2023-10-19T07:34:24;18.83;;;12.73;;
40815;SDS011;26535;48.788;9.214;2023-10-19T07:36:53;18.38;;;11.68;;
40815;SDS011;26535;48.788;9.214;2023-10-19T07:39:27;18.33;;;11.40;;
40815;SDS011;26535;48.788;9.214;2023-10-19T07:41:57;17.50;;;11.18;;
40815;SDS011;26535;48.788;9.214;2023-10-19T07:44:23;17.25;;;11.73;;
40815;SDS011;26535;48.788;9.214;2023-10-19T07:47:01;18.67;;;11.02;;
40815;SDS011;26535;48.788;9.214;2023-10-19T07:49:32;19.00;;;11.32;;
40815;SDS011;26535;48.788;9.214;2023-10-19T07:52:04;18.85;;;11.30;;
40815;SDS011;26535;48.788;9.214;2023-10-19T07:54:42;15.13;;;10.73;;
40815;SDS011;26535;48.788;9.214;2023-10-19T07:57:08;16.60;;;10.63;;
40815;SDS011;26535;48.788;9.214;2023-10-19T07:59:43;15.73;;;10.20;;
40815;SDS011;26535;48.788;9.214;2023-10-19T08:02:26;15.40;;;10.70;;
40815;SDS011;26535;48.788;9.214;2023-10-19T08:05:00;18.35;;;10.95;;
40815;SDS011;26535;48.788;9.214;2023-10-19T08:07:33;14.57;;;9.27;;
40815;SDS011;26535;48.788;9.214;2023-10-19T08:13:04;16.15;;;10.23;;
40815;SDS011;26535;48.788;9.214;2023-10-19T08:16:03;15.93;;;9.85;;
40815;SDS011;26535;48.788;9.214;2023-10-19T08:18:32;16.73;;;9.77;;
40815;SDS011;26535;48.788;9.214;2023-10-19T08:21:25;14.70;;;9.68;;
40815;SDS011;26535;48.788;9.214;2023-10-19T08:23:57;13.77;;;9.45;;
40815;SDS011;26535;48.788;9.214;2023-10-19T08:26:34;12.65;;;8.90;;
40815;SDS011;26535;48.788;9.214;2023-10-19T08:29:07;12.88;;;8.75;;
40815;SDS011;26535;48.788;9.214;2023-10-19T08:31:41;12.20;;;8.63;;
40815;SDS011;26535;48.788;9.214;2023-10-19T08:34:17;15.60;;;8.90;;
40815;SDS011;26535;48.788;9.214;2023-10-19T08:36:49;12.90;;;8.73;;
40815;SDS011;26535;48.788;9.214;2023-10-19T08:39:28;12.07;;;7.93;;
40815;SDS011;26535;48.788;9.214;2023-10-19T08:42:03;9.18;;;7.30;;
40815;SDS011;26535;48.788;9.214;2023-10-19T08:44:40;13.50;;;7.97;;
40815;SDS011;26535;48.788;9.214;2023-10-19T08:47:07;11.10;;;7.22;;
40815;SDS011;26535;48.788;9.214;2023-10-19T08:49:39;12.25;;;6.93;;
40815;SDS011;26535;48.788;9.214;2023-10-19T08:52:08;9.57;;;6.85;;
40815;SDS011;26535;48.788;9.214;2023-10-19T08:54:38;15.18;;;7.57;;
40815;SDS011;26535;48.788;9.214;2023-10-19T08:57:04;15.48;;;7.38;;
40815;SDS011;26535;48.788;9.214;2023-10-19T08:59:38;13.25;;;7.28;;
40815;SDS011;26535;48.788;9.214;2023-10-19T09:02:25;13.40;;;6.28;;
40815;SDS011;26535;48.788;9.214;2023-10-19T09:04:56;12.55;;;6.38;;
40815;SDS011;26535;48.788;9.214;2023-10-19T09:07:47;11.88;;;6.47;;
40815;SDS011;26535;48.788;9.214;2023-10-19T09:10:45;9.63;;;6.03;;
40815;SDS011;26535;48.788;9.214;2023-10-19T09:13:47;10.85;;;5.63;;
40815;SDS011;26535;48.788;9.214;2023-10-19T09:20:10;9.00;;;5.05;;
40815;SDS011;26535;48.788;9.214;2023-10-19T09:22:36;7.93;;;5.25;;
40815;SDS011;26535;48.788;9.214;2023-10-19T09:25:14;12.00;;;6.05;;
40815;SDS011;26535;48.788;9.214;2023-10-19T09:27:40;8.60;;;4.85;;
40815;SDS011;26535;48.788;9.214;2023-10-19T09:30:19;9.57;;;5.53;;
40815;SDS011;26535;48.788;9.214;2023-10-19T09:33:41;11.23;;;5.75;;
40815;SDS011;26535;48.788;9.214;2023-10-19T09:36:37;8.40;;;5.72;;
40815;SDS011;26535;48.788;9.214;2023-10-19T09:39:12;10.60;;;4.88;;
40815;SDS011;26535;48.788;9.214;2023-10-19T09:41:51;10.45;;;4.78;;
40815;SDS011;26535;48.788;9.214;2023-10-19T09:44:55;12.65;;;7.05;;
40815;SDS011;26535;48.788;9.214;2023-10-19T09:47:45;8.13;;;4.82;;
40815;SDS011;26535;48.788;9.214;2023-10-19T09:50:45;9.57;;;5.40;;
40815;SDS011;26535;48.788;9.214;2023-10-19T09:53:29;7.88;;;4.90;;
40815;SDS011;26535;48.788;9.214;2023-10-19T10:02:16;13.50;;;7.53;;
40815;SDS011;26535;48.788;9.214;2023-10-19T10:04:49;12.52;;;6.28;;
40815;SDS011;26535;48.788;9.214;2023-10-19T10:07:15;9.43;;;4.88;;
40815;SDS011;26535;48.788;9.214;2023-10-19T10:09:44;9.88;;;5.47;;
40815;SDS011;26535;48.788;9.214;2023-10-19T10:12:18;9.27;;;4.97;;
40815;SDS011;26535;48.788;9.214;2023-10-19T10:15:06;7.47;;;4.75;;
40815;SDS011;26535;48.788;9.214;2023-10-19T10:17:44;7.70;;;4.57;;
40815;SDS011;26535;48.788;9.214;2023-10-19T10:20:46;8.65;;;4.00;;
40815;SDS011;26535;48.788;9.214;2023-10-19T10:23:35;7.90;;;3.90;;
40815;SDS011;26535;48.788;9.214;2023-10-19T10:26:28;11.95;;;4.63;;
40815;SDS011;26535;48.788;9.214;2023-10-19T10:31:49;7.93;;;3.45;;
40815;SDS011;26535;48.788;9.214;2023-10-19T10:40:25;4.40;;;2.78;;
40815;SDS011;26535;48.788;9.214;2023-10-19T10:43:04;6.53;;;3.20;;
40815;SDS011;26535;48.788;9.214;2023-10-19T10:45:53;5.50;;;3.22;;
40815;SDS011;26535;48.788;9.214;2023-10-19T10:48:28;5.28;;;3.33;;
40815;SDS011;26535;48.788;9.214;2023-10-19T10:51:23;5.60;;;3.50;;
40815;SDS011;26535;48.788;9.214;2023-10-19T10:53:52;6.50;;;3.58;;
40815;SDS011;26535;48.788;9.214;2023-10-19T10:56:24;5.85;;;3.90;;
40815;SDS011;26535;48.788;9.214;2023-10-19T10:58:50;6.30;;;3.78;;
40815;SDS011;26535;48.788;9.214;2023-10-19T11:01:32;5.53;;;4.13;;
40815;SDS011;26535;48.788;9.214;2023-10-19T11:04:07;6.22;;;4.38;;
40815;SDS011;26535;48.788;9.214;2023-10-19T11:09:21;8.57;;;4.97;;
40815;SDS011;26535;48.788;9.214;2023-10-19T11:11:47;11.70;;;6.32;;
40815;SDS011;26535;48.788;9.214;2023-10-19T11:14:32;14.38;;;7.22;;
40815;SDS011;26535;48.788;9.214;2023-10-19T11:17:23;14.13;;;6.85;;
40815;SDS011;26535;48.788;9.214;2023-10-19T11:20:20;14.27;;;7.35;;
40815;SDS011;26535;48.788;9.214;2023-10-19T11:23:05;14.95;;;7.13;;
40815;SDS011;26535;48.788;9.214;2023-10-19T11:25:35;14.32;;;7.03;;
40815;SDS011;26535;48.788;9.214;2023-10-19T11:28:03;11.43;;;6.65;;
40815;SDS011;26535;48.788;9.214;2023-10-19T11:30:47;10.20;;;6.63;;
40815;SDS011;26535;48.788;9.214;2023-10-19T11:33:42;12.65;;;6.95;;
40815;SDS011;26535;48.788;9.214;2023-10-19T11:36:14;12.40;;;6.45;;
40815;SDS011;26535;48.788;9.214;2023-10-19T11:39:10;10.35;;;6.90;;
40815;SDS011;26535;48.788;9.214;2023-10-19T11:41:37;11.65;;;6.63;;
40815;SDS011;26535;48.788;9.214;2023-10-19T11:44:09;11.88;;;6.65;;
40815;SDS011;26535;48.788;9.214;2023-10-19T11:46:35;15.30;;;7.55;;
40815;SDS011;26535;48.788;9.214;2023-10-19T11:49:00;10.60;;;6.57;;
40815;SDS011;26535;48.788;9.214;2023-10-19T11:51:53;12.90;;;6.85;;
40815;SDS011;26535;48.788;9.214;2023-10-19T11:54:19;12.93;;;7.85;;
40815;SDS011;26535;48.788;9.214;2023-10-19T11:59:43;12.90;;;7.10;;
40815;SDS011;26535;48.788;9.214;2023-10-19T12:02:27;11.38;;;7.35;;
40815;SDS011;26535;48.788;9.214;2023-10-19T12:04:52;12.77;;;7.13;;
40815;SDS011;26535;48.788;9.214;2023-10-19T12:07:18;13.98;;;6.95;;
40815;SDS011;26535;48.788;9.214;2023-10-19T12:09:49;10.68;;;7.25;;
40815;SDS011;26535;48.788;9.214;2023-10-19T12:12:18;15.27;;;8.43;;
40815;SDS011;26535;48.788;9.214;2023-10-19T12:14:53;13.77;;;7.90;;
40815;SDS011;26535;48.788;9.214;2023-10-19T12:17:25;13.43;;;7.70;;
40815;SDS011;26535;48.788;9.214;2023-10-19T12:20:23;11.20;;;8.25;;
40815;SDS011;26535;48.788;9.214;2023-10-19T12:22:56;12.35;;;7.85;;
40815;SDS011;26535;48.788;9.214;2023-10-19T12:25:48;12.18;;;7.13;;
40815;SDS011;26535;48.788;9.214;2023-10-19T12:34:51;10.90;;;6.82;;
40815;SDS011;26535;48.788;9.214;2023-10-19T12:37:55;10.25;;;7.43;;
40815;SDS011;26535;48.788;9.214;2023-10-19T12:40:32;9.88;;;6.55;;
40815;SDS011;26535;48.788;9.214;2023-10-19T12:43:32;12.07;;;6.68;;
40815;SDS011;26535;48.788;9.214;2023-10-19T12:46:20;13.50;;;6.57;;
40815;SDS011;26535;48.788;9.214;2023-10-19T12:52:49;10.57;;;5.78;;
40815;SDS011;26535;48.788;9.214;2023-10-19T12:55:35;10.52;;;5.85;;
40815;SDS011;26535;48.788;9.214;2023-10-19T12:58:03;6.57;;;5.13;;
40815;SDS011;26535;48.788;9.214;2023-10-19T13:00:34;8.30;;;5.88;;
40815;SDS011;26535;48.788;9.214;2023-10-19T13:03:26;7.18;;;5.15;;
40815;SDS011;26535;48.788;9.214;2023-10-19T13:05:56;8.43;;;5.07;;
40815;SDS011;26535;48.788;9.214;2023-10-19T13:11:31;9.18;;;5.80;;
40815;SDS011;26535;48.788;9.214;2023-10-19T13:14:29;7.47;;;5.50;;
40815;SDS011;26535;48.788;9.214;2023-10-19T13:16:59;9.25;;;5.30;;
40815;SDS011;26535;48.788;9.214;2023-10-19T13:19:25;6.65;;;4.72;;
40815;SDS011;26535;48.788;9.214;2023-10-19T13:21:51;7.32;;;4.88;;
40815;SDS011;26535;48.788;9.214;2023-10-19T13:24:41;7.63;;;5.07;;
40815;SDS011;26535;48.788;9.214;2023-10-19T13:27:11;6.75;;;5.30;;
40815;SDS011;26535;48.788;9.214;2023-10-19T13:29:36;7.70;;;4.65;;
40815;SDS011;26535;48.788;9.214;2023-10-19T13:32:08;6.50;;;4.90;;
40815;SDS011;26535;48.788;9.214;2023-10-19T13:34:33;6.65;;;4.35;;
40815;SDS011;26535;48.788;9.214;2023-10-19T13:39:56;5.90;;;4.18;;
40815;SDS011;26535;48.788;9.214;2023-10-19T13:42:25;7.43;;;4.10;;
40815;SDS011;26535;48.788;9.214;2023-10-19T13:44:51;7.15;;;4.20;;
40815;SDS011;26535;48.788;9.214;2023-10-19T13:47:21;6.55;;;4.20;;
40815;SDS011;26535;48.788;9.214;2023-10-19T14:32:44;8.55;;;5.10;;
40815;SDS011;26535;48.788;9.214;2023-10-19T16:01:28;7.70;;;5.75;;
40815;SDS011;26535;48.788;9.214;2023-10-19T16:04:31;12.98;;;6.63;;
40815;SDS011;26535;48.788;9.214;2023-10-19T16:08:00;9.15;;;6.03;;
40815;SDS011;26535;48.788;9.214;2023-10-19T16:10:29;8.05;;;6.25;;
40815;SDS011;26535;48.788;9.214;2023-10-19T16:28:42;16.83;;;10.95;;
40815;SDS011;26535;48.788;9.214;2023-10-19T16:39:01;11.50;;;7.22;;
40815;SDS011;26535;48.788;9.214;2023-10-19T16:42:29;10.43;;;7.43;;
40815;SDS011;26535;48.788;9.214;2023-10-19T16:44:54;11.20;;;7.57;;
40815;SDS011;26535;48.788;9.214;2023-10-19T16:47:26;9.40;;;7.30;;
40815;SDS011;26535;48.788;9.214;2023-10-19T17:47:54;10.85;;;6.50;;
40815;SDS011;26535;48.788;9.214;2023-10-19T19:41:51;13.32;;;10.27;;
40815;SDS011;26535;48.788;9.214;2023-10-19T19:44:43;12.68;;;9.70;;
40815;SDS011;26535;48.788;9.214;2023-10-19T21:37:38;15.27;;;11.23;;
40815;SDS011;26535;48.788;9.214;2023-10-19T21:45:12;17.48;;;12.23;;
40815;SDS011;26535;48.788;9.214;2023-10-19T21:47:43;17.58;;;12.25;;
40815;SDS011;26535;48.788;9.214;2023-10-19T21:58:59;18.52;;;13.57;;
40815;SDS011;26535;48.788;9.214;2023-10-19T22:48:21;18.52;;;12.05;;
